sensor_id;sensor_type;location;lat;lon;timestamp;P1;durP1;ratioP1;P2;durP2;ratioP2
20731;SDS011;10527;52.124;5.196;2023-08-12T00:00:14;3.40;;;2.50;;
20731;SDS011;10527;52.124;5.196;2023-08-12T00:02:44;4.72;;;2.63;;
20731;SDS011;10527;52.124;5.196;2023-08-12T00:05:11;3.22;;;2.58;;
20731;SDS011;10527;52.124;5.196;2023-08-12T00:07:39;4.03;;;2.65;;
20731;SDS011;10527;52.124;5.196;2023-08-12T00:10:08;3.50;;;2.60;;
20731;SDS011;10527;52.124;5.196;2023-08-12T00:12:37;5.07;;;2.83;;
20731;SDS011;10527;52.124;5.196;2023-08-12T00:15:05;6.80;;;3.30;;
20731;SDS011;10527;52.124;5.196;2023-08-12T00:17:34;6.47;;;3.60;;
20731;SDS011;10527;52.124;5.196;2023-08-12T00:20:08;3.78;;;2.70;;
20731;SDS011;10527;52.124;5.196;2023-08-12T00:22:37;6.32;;;3.65;;
20731;SDS011;10527;52.124;5.196;2023-08-12T00:25:08;4.57;;;3.28;;
20731;SDS011;10527;52.124;5.196;2023-08-12T00:27:35;8.85;;;4.63;;
20731;SDS011;10527;52.124;5.196;2023-08-12T00:30:04;5.35;;;3.40;;
20731;SDS011;10527;52.124;5.196;2023-08-12T00:32:32;7.60;;;3.50;;
20731;SDS011;10527;52.124;5.196;2023-08-12T00:34:58;4.45;;;3.15;;
20731;SDS011;10527;52.124;5.196;2023-08-12T00:37:25;11.38;;;4.13;;
20731;SDS011;10527;52.124;5.196;2023-08-12T00:39:52;6.45;;;3.90;;
20731;SDS011;10527;52.124;5.196;2023-08-12T00:42:21;5.72;;;3.80;;
20731;SDS011;10527;52.124;5.196;2023-08-12T00:44:48;5.53;;;3.45;;
20731;SDS011;10527;52.124;5.196;2023-08-12T00:47:16;4.97;;;3.65;;
20731;SDS011;10527;52.124;5.196;2023-08-12T00:49:43;6.10;;;4.00;;
20731;SDS011;10527;52.124;5.196;2023-08-12T00:52:14;8.18;;;3.90;;
20731;SDS011;10527;52.124;5.196;2023-08-12T00:54:51;5.68;;;3.22;;
20731;SDS011;10527;52.124;5.196;2023-08-12T00:57:24;7.20;;;3.70;;
20731;SDS011;10527;52.124;5.196;2023-08-12T00:59:52;5.00;;;3.58;;
20731;SDS011;10527;52.124;5.196;2023-08-12T01:02:23;7.72;;;3.67;;
20731;SDS011;10527;52.124;5.196;2023-08-12T01:04:50;4.97;;;3.28;;
20731;SDS011;10527;52.124;5.196;2023-08-12T01:07:17;7.53;;;3.38;;
20731;SDS011;10527;52.124;5.196;2023-08-12T01:09:46;7.18;;;4.00;;
20731;SDS011;10527;52.124;5.196;2023-08-12T01:12:17;5.22;;;2.88;;
20731;SDS011;10527;52.124;5.196;2023-08-12T01:15:25;5.65;;;3.42;;
20731;SDS011;10527;52.124;5.196;2023-08-12T01:17:55;7.78;;;3.28;;
20731;SDS011;10527;52.124;5.196;2023-08-12T01:20:25;7.63;;;4.20;;
20731;SDS011;10527;52.124;5.196;2023-08-12T01:22:56;5.50;;;3.30;;
20731;SDS011;10527;52.124;5.196;2023-08-12T01:25:41;8.13;;;3.90;;
20731;SDS011;10527;52.124;5.196;2023-08-12T01:28:09;7.15;;;3.92;;
20731;SDS011;10527;52.124;5.196;2023-08-12T01:30:51;4.82;;;3.45;;
20731;SDS011;10527;52.124;5.196;2023-08-12T01:33:42;9.02;;;5.47;;
20731;SDS011;10527;52.124;5.196;2023-08-12T01:36:24;15.27;;;9.45;;
20731;SDS011;10527;52.124;5.196;2023-08-12T01:38:55;22.17;;;14.43;;
20731;SDS011;10527;52.124;5.196;2023-08-12T01:41:29;18.15;;;12.88;;
20731;SDS011;10527;52.124;5.196;2023-08-12T01:43:56;22.45;;;15.20;;
20731;SDS011;10527;52.124;5.196;2023-08-12T01:46:23;17.15;;;13.30;;
20731;SDS011;10527;52.124;5.196;2023-08-12T01:48:50;14.52;;;10.68;;
20731;SDS011;10527;52.124;5.196;2023-08-12T01:51:17;13.57;;;9.65;;
20731;SDS011;10527;52.124;5.196;2023-08-12T01:53:43;12.65;;;8.38;;
20731;SDS011;10527;52.124;5.196;2023-08-12T01:56:10;13.50;;;8.57;;
20731;SDS011;10527;52.124;5.196;2023-08-12T01:58:37;11.48;;;9.02;;
20731;SDS011;10527;52.124;5.196;2023-08-12T02:01:07;10.07;;;6.90;;
20731;SDS011;10527;52.124;5.196;2023-08-12T02:03:34;7.03;;;5.82;;
20731;SDS011;10527;52.124;5.196;2023-08-12T02:06:01;8.23;;;5.05;;
20731;SDS011;10527;52.124;5.196;2023-08-12T02:08:33;7.45;;;3.95;;
20731;SDS011;10527;52.124;5.196;2023-08-12T02:11:00;9.63;;;5.40;;
20731;SDS011;10527;52.124;5.196;2023-08-12T02:13:27;9.60;;;4.93;;
20731;SDS011;10527;52.124;5.196;2023-08-12T02:15:54;8.43;;;5.18;;
20731;SDS011;10527;52.124;5.196;2023-08-12T02:18:21;11.63;;;4.82;;
20731;SDS011;10527;52.124;5.196;2023-08-12T02:20:54;6.90;;;3.42;;
20731;SDS011;10527;52.124;5.196;2023-08-12T02:23:26;6.30;;;4.10;;
20731;SDS011;10527;52.124;5.196;2023-08-12T02:25:53;5.82;;;3.42;;
20731;SDS011;10527;52.124;5.196;2023-08-12T02:28:20;9.18;;;5.13;;
20731;SDS011;10527;52.124;5.196;2023-08-12T02:30:47;6.95;;;4.28;;
20731;SDS011;10527;52.124;5.196;2023-08-12T02:33:16;5.47;;;3.60;;
20731;SDS011;10527;52.124;5.196;2023-08-12T02:35:43;8.88;;;4.32;;
20731;SDS011;10527;52.124;5.196;2023-08-12T02:38:10;5.55;;;4.10;;
20731;SDS011;10527;52.124;5.196;2023-08-12T02:40:37;8.45;;;4.40;;
20731;SDS011;10527;52.124;5.196;2023-08-12T02:43:03;6.75;;;4.85;;
20731;SDS011;10527;52.124;5.196;2023-08-12T02:45:30;6.78;;;4.93;;
20731;SDS011;10527;52.124;5.196;2023-08-12T02:47:58;9.73;;;4.80;;
20731;SDS011;10527;52.124;5.196;2023-08-12T02:50:25;7.75;;;4.85;;
20731;SDS011;10527;52.124;5.196;2023-08-12T02:52:51;8.45;;;4.68;;
20731;SDS011;10527;52.124;5.196;2023-08-12T02:55:18;5.45;;;4.47;;
20731;SDS011;10527;52.124;5.196;2023-08-12T02:57:45;7.07;;;4.85;;
20731;SDS011;10527;52.124;5.196;2023-08-12T03:00:12;8.85;;;5.45;;
20731;SDS011;10527;52.124;5.196;2023-08-12T03:02:43;9.68;;;5.90;;
20731;SDS011;10527;52.124;5.196;2023-08-12T03:05:10;10.40;;;6.07;;
20731;SDS011;10527;52.124;5.196;2023-08-12T03:07:37;7.00;;;5.38;;
20731;SDS011;10527;52.124;5.196;2023-08-12T03:10:04;9.60;;;6.65;;
20731;SDS011;10527;52.124;5.196;2023-08-12T03:12:32;10.68;;;5.78;;
20731;SDS011;10527;52.124;5.196;2023-08-12T03:14:59;10.10;;;5.63;;
20731;SDS011;10527;52.124;5.196;2023-08-12T03:17:27;9.48;;;5.43;;
20731;SDS011;10527;52.124;5.196;2023-08-12T03:19:54;7.78;;;5.72;;
20731;SDS011;10527;52.124;5.196;2023-08-12T03:22:20;7.43;;;5.22;;
20731;SDS011;10527;52.124;5.196;2023-08-12T03:24:48;9.48;;;5.80;;
20731;SDS011;10527;52.124;5.196;2023-08-12T03:27:15;8.65;;;5.75;;
20731;SDS011;10527;52.124;5.196;2023-08-12T03:29:42;7.85;;;6.10;;
20731;SDS011;10527;52.124;5.196;2023-08-12T03:32:09;9.68;;;6.50;;
20731;SDS011;10527;52.124;5.196;2023-08-12T03:34:36;9.82;;;6.28;;
20731;SDS011;10527;52.124;5.196;2023-08-12T03:37:03;11.88;;;6.60;;
20731;SDS011;10527;52.124;5.196;2023-08-12T03:39:33;8.88;;;7.03;;
20731;SDS011;10527;52.124;5.196;2023-08-12T03:42:03;8.93;;;7.03;;
20731;SDS011;10527;52.124;5.196;2023-08-12T03:44:39;8.63;;;5.82;;
20731;SDS011;10527;52.124;5.196;2023-08-12T03:47:08;10.70;;;6.82;;
20731;SDS011;10527;52.124;5.196;2023-08-12T03:49:35;10.32;;;6.55;;
20731;SDS011;10527;52.124;5.196;2023-08-12T03:52:03;8.15;;;6.38;;
20731;SDS011;10527;52.124;5.196;2023-08-12T03:54:35;8.60;;;5.75;;
20731;SDS011;10527;52.124;5.196;2023-08-12T03:57:02;8.63;;;6.65;;
20731;SDS011;10527;52.124;5.196;2023-08-12T03:59:29;8.52;;;6.88;;
20731;SDS011;10527;52.124;5.196;2023-08-12T04:01:59;7.53;;;6.63;;
20731;SDS011;10527;52.124;5.196;2023-08-12T04:04:34;8.85;;;6.13;;
20731;SDS011;10527;52.124;5.196;2023-08-12T04:07:00;9.45;;;6.55;;
20731;SDS011;10527;52.124;5.196;2023-08-12T04:09:27;9.82;;;6.38;;
20731;SDS011;10527;52.124;5.196;2023-08-12T04:11:54;8.85;;;6.35;;
20731;SDS011;10527;52.124;5.196;2023-08-12T04:14:21;5.85;;;5.28;;
20731;SDS011;10527;52.124;5.196;2023-08-12T04:16:48;14.50;;;6.82;;
20731;SDS011;10527;52.124;5.196;2023-08-12T04:19:15;9.43;;;6.28;;
20731;SDS011;10527;52.124;5.196;2023-08-12T04:21:42;8.18;;;6.40;;
20731;SDS011;10527;52.124;5.196;2023-08-12T04:24:12;8.98;;;6.57;;
20731;SDS011;10527;52.124;5.196;2023-08-12T04:26:39;11.65;;;6.70;;
20731;SDS011;10527;52.124;5.196;2023-08-12T04:29:06;8.43;;;6.30;;
20731;SDS011;10527;52.124;5.196;2023-08-12T04:31:33;8.85;;;5.72;;
20731;SDS011;10527;52.124;5.196;2023-08-12T04:34:00;12.88;;;7.20;;
20731;SDS011;10527;52.124;5.196;2023-08-12T04:36:30;11.18;;;7.25;;
20731;SDS011;10527;52.124;5.196;2023-08-12T04:38:56;12.88;;;6.63;;
20731;SDS011;10527;52.124;5.196;2023-08-12T04:41:23;25.25;;;8.00;;
20731;SDS011;10527;52.124;5.196;2023-08-12T04:43:50;9.20;;;6.05;;
20731;SDS011;10527;52.124;5.196;2023-08-12T04:46:17;7.55;;;5.80;;
20731;SDS011;10527;52.124;5.196;2023-08-12T04:48:44;9.63;;;5.63;;
20731;SDS011;10527;52.124;5.196;2023-08-12T04:51:11;13.07;;;6.15;;
20731;SDS011;10527;52.124;5.196;2023-08-12T04:53:47;7.85;;;6.03;;
20731;SDS011;10527;52.124;5.196;2023-08-12T04:56:16;7.72;;;6.20;;
20731;SDS011;10527;52.124;5.196;2023-08-12T04:58:47;8.70;;;6.10;;
20731;SDS011;10527;52.124;5.196;2023-08-12T05:01:15;7.88;;;4.90;;
20731;SDS011;10527;52.124;5.196;2023-08-12T05:03:47;10.07;;;6.05;;
20731;SDS011;10527;52.124;5.196;2023-08-12T05:06:14;7.40;;;5.85;;
20731;SDS011;10527;52.124;5.196;2023-08-12T05:08:41;8.00;;;5.65;;
20731;SDS011;10527;52.124;5.196;2023-08-12T05:11:08;7.40;;;5.47;;
20731;SDS011;10527;52.124;5.196;2023-08-12T05:13:34;8.77;;;5.93;;
20731;SDS011;10527;52.124;5.196;2023-08-12T05:16:04;10.02;;;5.70;;
20731;SDS011;10527;52.124;5.196;2023-08-12T05:18:31;7.50;;;5.25;;
20731;SDS011;10527;52.124;5.196;2023-08-12T05:20:58;9.48;;;6.22;;
20731;SDS011;10527;52.124;5.196;2023-08-12T05:29:27;11.32;;;5.80;;
20731;SDS011;10527;52.124;5.196;2023-08-12T05:31:56;8.57;;;5.82;;
20731;SDS011;10527;52.124;5.196;2023-08-12T05:34:28;9.15;;;6.22;;
20731;SDS011;10527;52.124;5.196;2023-08-12T05:36:55;8.38;;;5.82;;
20731;SDS011;10527;52.124;5.196;2023-08-12T05:39:23;11.13;;;6.05;;
20731;SDS011;10527;52.124;5.196;2023-08-12T05:41:50;9.70;;;6.55;;
20731;SDS011;10527;52.124;5.196;2023-08-12T05:44:21;10.60;;;6.40;;
20731;SDS011;10527;52.124;5.196;2023-08-12T05:46:51;11.02;;;6.72;;
20731;SDS011;10527;52.124;5.196;2023-08-12T05:49:19;8.95;;;6.47;;
20731;SDS011;10527;52.124;5.196;2023-08-12T05:51:46;9.25;;;6.28;;
20731;SDS011;10527;52.124;5.196;2023-08-12T05:54:13;9.40;;;6.88;;
20731;SDS011;10527;52.124;5.196;2023-08-12T05:56:40;7.57;;;5.97;;
20731;SDS011;10527;52.124;5.196;2023-08-12T05:59:09;10.38;;;6.68;;
20731;SDS011;10527;52.124;5.196;2023-08-12T06:01:35;6.22;;;5.38;;
20731;SDS011;10527;52.124;5.196;2023-08-12T06:04:05;8.80;;;5.85;;
20731;SDS011;10527;52.124;5.196;2023-08-12T06:06:32;8.80;;;6.75;;
20731;SDS011;10527;52.124;5.196;2023-08-12T06:08:59;6.60;;;5.45;;
20731;SDS011;10527;52.124;5.196;2023-08-12T06:11:33;9.32;;;5.65;;
20731;SDS011;10527;52.124;5.196;2023-08-12T06:13:59;6.72;;;5.38;;
20731;SDS011;10527;52.124;5.196;2023-08-12T06:16:28;7.47;;;5.80;;
20731;SDS011;10527;52.124;5.196;2023-08-12T06:18:55;10.75;;;6.47;;
20731;SDS011;10527;52.124;5.196;2023-08-12T06:21:22;5.72;;;4.72;;
20731;SDS011;10527;52.124;5.196;2023-08-12T06:23:49;8.52;;;4.03;;
20731;SDS011;10527;52.124;5.196;2023-08-12T06:26:16;6.13;;;4.43;;
20731;SDS011;10527;52.124;5.196;2023-08-12T06:28:43;5.00;;;3.53;;
20731;SDS011;10527;52.124;5.196;2023-08-12T06:31:19;4.95;;;3.25;;
20731;SDS011;10527;52.124;5.196;2023-08-12T06:33:46;4.82;;;3.00;;
20731;SDS011;10527;52.124;5.196;2023-08-12T06:36:13;3.53;;;2.33;;
20731;SDS011;10527;52.124;5.196;2023-08-12T06:38:39;2.72;;;2.05;;
20731;SDS011;10527;52.124;5.196;2023-08-12T06:41:06;4.85;;;2.40;;
20731;SDS011;10527;52.124;5.196;2023-08-12T06:43:35;3.15;;;1.90;;
20731;SDS011;10527;52.124;5.196;2023-08-12T06:46:04;4.22;;;2.08;;
20731;SDS011;10527;52.124;5.196;2023-08-12T06:48:31;3.00;;;2.13;;
20731;SDS011;10527;52.124;5.196;2023-08-12T06:50:58;2.25;;;1.63;;
20731;SDS011;10527;52.124;5.196;2023-08-12T06:53:26;2.38;;;1.73;;
20731;SDS011;10527;52.124;5.196;2023-08-12T06:55:53;2.13;;;1.42;;
20731;SDS011;10527;52.124;5.196;2023-08-12T06:58:20;2.95;;;1.70;;
20731;SDS011;10527;52.124;5.196;2023-08-12T07:00:49;6.82;;;1.70;;
20731;SDS011;10527;52.124;5.196;2023-08-12T07:03:21;2.10;;;1.08;;
20731;SDS011;10527;52.124;5.196;2023-08-12T07:05:49;3.35;;;1.70;;
20731;SDS011;10527;52.124;5.196;2023-08-12T07:08:15;2.10;;;1.60;;
20731;SDS011;10527;52.124;5.196;2023-08-12T07:10:42;2.13;;;1.60;;
20731;SDS011;10527;52.124;5.196;2023-08-12T07:13:09;1.55;;;1.40;;
20731;SDS011;10527;52.124;5.196;2023-08-12T07:15:36;5.13;;;2.00;;
20731;SDS011;10527;52.124;5.196;2023-08-12T07:18:03;1.92;;;1.73;;
20731;SDS011;10527;52.124;5.196;2023-08-12T07:20:33;2.53;;;1.65;;
20731;SDS011;10527;52.124;5.196;2023-08-12T07:23:00;2.30;;;1.80;;
20731;SDS011;10527;52.124;5.196;2023-08-12T07:25:30;1.98;;;1.70;;
20731;SDS011;10527;52.124;5.196;2023-08-12T07:30:49;1.92;;;1.55;;
20731;SDS011;10527;52.124;5.196;2023-08-12T07:33:16;3.17;;;1.90;;
20731;SDS011;10527;52.124;5.196;2023-08-12T07:35:43;2.08;;;1.80;;
20731;SDS011;10527;52.124;5.196;2023-08-12T07:38:10;2.95;;;2.45;;
20731;SDS011;10527;52.124;5.196;2023-08-12T07:40:44;2.05;;;1.85;;
20731;SDS011;10527;52.124;5.196;2023-08-12T07:43:11;2.75;;;1.90;;
20731;SDS011;10527;52.124;5.196;2023-08-12T07:45:41;1.65;;;1.50;;
20731;SDS011;10527;52.124;5.196;2023-08-12T07:48:12;1.70;;;1.60;;
20731;SDS011;10527;52.124;5.196;2023-08-12T07:50:39;1.70;;;1.33;;
20731;SDS011;10527;52.124;5.196;2023-08-12T07:53:08;2.22;;;1.63;;
20731;SDS011;10527;52.124;5.196;2023-08-12T07:55:35;2.33;;;1.55;;
20731;SDS011;10527;52.124;5.196;2023-08-12T08:03:11;1.60;;;1.20;;
20731;SDS011;10527;52.124;5.196;2023-08-12T08:08:53;1.67;;;1.30;;
20731;SDS011;10527;52.124;5.196;2023-08-12T08:11:21;2.90;;;1.13;;
20731;SDS011;10527;52.124;5.196;2023-08-12T08:13:53;1.13;;;1.00;;
20731;SDS011;10527;52.124;5.196;2023-08-12T08:16:20;1.42;;;1.05;;
20731;SDS011;10527;52.124;5.196;2023-08-12T08:18:47;1.67;;;0.90;;
20731;SDS011;10527;52.124;5.196;2023-08-12T08:21:16;1.08;;;0.90;;
20731;SDS011;10527;52.124;5.196;2023-08-12T08:23:43;1.20;;;0.88;;
20731;SDS011;10527;52.124;5.196;2023-08-12T08:26:10;1.10;;;1.00;;
20731;SDS011;10527;52.124;5.196;2023-08-12T08:28:39;0.73;;;0.63;;
20731;SDS011;10527;52.124;5.196;2023-08-12T08:31:06;0.80;;;0.75;;
20731;SDS011;10527;52.124;5.196;2023-08-12T08:33:33;1.23;;;0.63;;
20731;SDS011;10527;52.124;5.196;2023-08-12T08:36:01;1.20;;;0.70;;
20731;SDS011;10527;52.124;5.196;2023-08-12T08:38:28;1.10;;;0.70;;
20731;SDS011;10527;52.124;5.196;2023-08-12T08:40:57;1.77;;;0.90;;
20731;SDS011;10527;52.124;5.196;2023-08-12T08:43:24;1.52;;;0.90;;
20731;SDS011;10527;52.124;5.196;2023-08-12T08:45:54;3.75;;;1.60;;
20731;SDS011;10527;52.124;5.196;2023-08-12T08:48:23;3.92;;;1.08;;
20731;SDS011;10527;52.124;5.196;2023-08-12T08:50:51;2.28;;;0.88;;
20731;SDS011;10527;52.124;5.196;2023-08-12T08:53:19;2.50;;;0.85;;
20731;SDS011;10527;52.124;5.196;2023-08-12T08:55:47;2.97;;;0.90;;
20731;SDS011;10527;52.124;5.196;2023-08-12T08:58:15;2.30;;;1.35;;
20731;SDS011;10527;52.124;5.196;2023-08-12T09:00:47;4.07;;;1.15;;
20731;SDS011;10527;52.124;5.196;2023-08-12T09:03:15;1.38;;;0.77;;
20731;SDS011;10527;52.124;5.196;2023-08-12T09:05:43;2.17;;;0.90;;
20731;SDS011;10527;52.124;5.196;2023-08-12T09:08:10;1.77;;;1.17;;
20731;SDS011;10527;52.124;5.196;2023-08-12T09:10:41;2.75;;;0.73;;
20731;SDS011;10527;52.124;5.196;2023-08-12T09:13:12;3.53;;;0.90;;
20731;SDS011;10527;52.124;5.196;2023-08-12T09:15:46;7.47;;;2.03;;
20731;SDS011;10527;52.124;5.196;2023-08-12T09:18:13;3.00;;;0.80;;
20731;SDS011;10527;52.124;5.196;2023-08-12T09:20:43;4.07;;;1.05;;
20731;SDS011;10527;52.124;5.196;2023-08-12T09:23:13;6.38;;;1.42;;
20731;SDS011;10527;52.124;5.196;2023-08-12T09:25:43;2.45;;;0.80;;
20731;SDS011;10527;52.124;5.196;2023-08-12T09:28:11;4.25;;;1.10;;
20731;SDS011;10527;52.124;5.196;2023-08-12T09:30:42;3.40;;;0.90;;
20731;SDS011;10527;52.124;5.196;2023-08-12T09:33:17;3.13;;;1.08;;
20731;SDS011;10527;52.124;5.196;2023-08-12T09:38:26;3.80;;;0.80;;
20731;SDS011;10527;52.124;5.196;2023-08-12T09:40:53;5.35;;;0.90;;
20731;SDS011;10527;52.124;5.196;2023-08-12T09:43:27;4.43;;;1.10;;
20731;SDS011;10527;52.124;5.196;2023-08-12T09:45:56;4.57;;;0.98;;
20731;SDS011;10527;52.124;5.196;2023-08-12T09:48:28;2.58;;;1.00;;
20731;SDS011;10527;52.124;5.196;2023-08-12T09:50:54;2.42;;;1.17;;
20731;SDS011;10527;52.124;5.196;2023-08-12T09:53:22;4.47;;;1.58;;
20731;SDS011;10527;52.124;5.196;2023-08-12T09:55:49;4.63;;;1.17;;
20731;SDS011;10527;52.124;5.196;2023-08-12T09:58:19;3.45;;;0.88;;
20731;SDS011;10527;52.124;5.196;2023-08-12T10:00:50;3.03;;;0.90;;
20731;SDS011;10527;52.124;5.196;2023-08-12T10:03:18;2.63;;;1.23;;
20731;SDS011;10527;52.124;5.196;2023-08-12T10:05:47;3.15;;;0.90;;
20731;SDS011;10527;52.124;5.196;2023-08-12T10:08:15;5.13;;;1.25;;
20731;SDS011;10527;52.124;5.196;2023-08-12T10:10:43;4.03;;;0.73;;
20731;SDS011;10527;52.124;5.196;2023-08-12T10:13:15;2.92;;;1.05;;
20731;SDS011;10527;52.124;5.196;2023-08-12T10:15:55;2.63;;;0.90;;
20731;SDS011;10527;52.124;5.196;2023-08-12T10:18:23;2.10;;;1.08;;
20731;SDS011;10527;52.124;5.196;2023-08-12T10:20:58;3.08;;;1.02;;
20731;SDS011;10527;52.124;5.196;2023-08-12T10:23:29;4.60;;;1.25;;
20731;SDS011;10527;52.124;5.196;2023-08-12T10:25:57;4.32;;;1.48;;
20731;SDS011;10527;52.124;5.196;2023-08-12T10:28:26;4.13;;;1.30;;
20731;SDS011;10527;52.124;5.196;2023-08-12T10:30:53;3.33;;;1.23;;
20731;SDS011;10527;52.124;5.196;2023-08-12T10:33:22;6.45;;;1.30;;
20731;SDS011;10527;52.124;5.196;2023-08-12T10:35:51;3.53;;;1.25;;
20731;SDS011;10527;52.124;5.196;2023-08-12T10:38:25;3.15;;;1.10;;
20731;SDS011;10527;52.124;5.196;2023-08-12T10:40:52;4.80;;;1.50;;
20731;SDS011;10527;52.124;5.196;2023-08-12T10:43:49;4.43;;;1.02;;
20731;SDS011;10527;52.124;5.196;2023-08-12T10:46:30;5.65;;;1.17;;
20731;SDS011;10527;52.124;5.196;2023-08-12T10:49:09;5.50;;;1.15;;
20731;SDS011;10527;52.124;5.196;2023-08-12T10:54:31;5.13;;;0.98;;
20731;SDS011;10527;52.124;5.196;2023-08-12T11:02:13;4.88;;;1.00;;
20731;SDS011;10527;52.124;5.196;2023-08-12T11:04:56;5.60;;;1.45;;
20731;SDS011;10527;52.124;5.196;2023-08-12T11:07:32;4.00;;;1.10;;
20731;SDS011;10527;52.124;5.196;2023-08-12T11:18:14;5.22;;;1.30;;
20731;SDS011;10527;52.124;5.196;2023-08-12T11:20:47;3.70;;;1.17;;
20731;SDS011;10527;52.124;5.196;2023-08-12T11:23:15;2.95;;;0.93;;
20731;SDS011;10527;52.124;5.196;2023-08-12T11:25:43;4.97;;;1.73;;
20731;SDS011;10527;52.124;5.196;2023-08-12T11:28:17;4.07;;;1.05;;
20731;SDS011;10527;52.124;5.196;2023-08-12T11:30:47;3.75;;;0.85;;
20731;SDS011;10527;52.124;5.196;2023-08-12T11:33:15;4.05;;;1.10;;
20731;SDS011;10527;52.124;5.196;2023-08-12T11:35:47;3.70;;;1.95;;
20731;SDS011;10527;52.124;5.196;2023-08-12T11:38:14;2.53;;;0.88;;
20731;SDS011;10527;52.124;5.196;2023-08-12T11:40:42;5.28;;;0.90;;
20731;SDS011;10527;52.124;5.196;2023-08-12T11:43:09;3.38;;;1.00;;
20731;SDS011;10527;52.124;5.196;2023-08-12T11:45:41;4.03;;;0.98;;
20731;SDS011;10527;52.124;5.196;2023-08-12T11:48:09;4.57;;;1.00;;
20731;SDS011;10527;52.124;5.196;2023-08-12T11:50:36;5.22;;;1.83;;
20731;SDS011;10527;52.124;5.196;2023-08-12T11:53:04;6.18;;;1.27;;
20731;SDS011;10527;52.124;5.196;2023-08-12T11:55:34;5.82;;;1.00;;
20731;SDS011;10527;52.124;5.196;2023-08-12T11:58:06;3.05;;;0.85;;
20731;SDS011;10527;52.124;5.196;2023-08-12T12:00:36;7.40;;;0.95;;
20731;SDS011;10527;52.124;5.196;2023-08-12T12:03:04;4.85;;;1.15;;
20731;SDS011;10527;52.124;5.196;2023-08-12T12:05:32;6.53;;;1.00;;
20731;SDS011;10527;52.124;5.196;2023-08-12T12:08:01;3.80;;;1.15;;
20731;SDS011;10527;52.124;5.196;2023-08-12T12:10:33;4.60;;;0.90;;
20731;SDS011;10527;52.124;5.196;2023-08-12T12:13:01;3.58;;;0.88;;
20731;SDS011;10527;52.124;5.196;2023-08-12T12:15:37;2.67;;;1.00;;
20731;SDS011;10527;52.124;5.196;2023-08-12T12:18:11;3.97;;;1.50;;
20731;SDS011;10527;52.124;5.196;2023-08-12T12:20:58;3.80;;;0.98;;
20731;SDS011;10527;52.124;5.196;2023-08-12T12:23:29;5.53;;;1.40;;
20731;SDS011;10527;52.124;5.196;2023-08-12T12:26:00;3.70;;;1.00;;
20731;SDS011;10527;52.124;5.196;2023-08-12T12:28:28;5.00;;;1.05;;
20731;SDS011;10527;52.124;5.196;2023-08-12T12:30:56;4.65;;;1.00;;
20731;SDS011;10527;52.124;5.196;2023-08-12T12:33:23;7.60;;;1.63;;
20731;SDS011;10527;52.124;5.196;2023-08-12T12:35:50;6.57;;;1.02;;
20731;SDS011;10527;52.124;5.196;2023-08-12T12:38:27;6.03;;;1.55;;
20731;SDS011;10527;52.124;5.196;2023-08-12T12:40:54;2.92;;;0.90;;
20731;SDS011;10527;52.124;5.196;2023-08-12T12:43:22;2.65;;;0.90;;
20731;SDS011;10527;52.124;5.196;2023-08-12T12:45:54;4.95;;;1.83;;
20731;SDS011;10527;52.124;5.196;2023-08-12T12:48:21;4.95;;;1.30;;
20731;SDS011;10527;52.124;5.196;2023-08-12T12:50:48;3.45;;;1.00;;
20731;SDS011;10527;52.124;5.196;2023-08-12T12:53:15;4.40;;;1.02;;
20731;SDS011;10527;52.124;5.196;2023-08-12T12:55:43;3.92;;;1.20;;
20731;SDS011;10527;52.124;5.196;2023-08-12T12:58:10;4.63;;;1.23;;
20731;SDS011;10527;52.124;5.196;2023-08-12T13:00:37;6.78;;;1.70;;
20731;SDS011;10527;52.124;5.196;2023-08-12T13:03:04;7.18;;;1.23;;
20731;SDS011;10527;52.124;5.196;2023-08-12T13:05:31;5.28;;;1.30;;
20731;SDS011;10527;52.124;5.196;2023-08-12T13:08:00;6.05;;;1.52;;
20731;SDS011;10527;52.124;5.196;2023-08-12T13:10:27;3.65;;;1.13;;
20731;SDS011;10527;52.124;5.196;2023-08-12T13:12:53;11.40;;;1.52;;
20731;SDS011;10527;52.124;5.196;2023-08-12T13:15:20;6.00;;;1.20;;
20731;SDS011;10527;52.124;5.196;2023-08-12T13:17:49;5.05;;;1.23;;
20731;SDS011;10527;52.124;5.196;2023-08-12T13:20:20;4.10;;;1.10;;
20731;SDS011;10527;52.124;5.196;2023-08-12T13:22:47;2.50;;;0.85;;
20731;SDS011;10527;52.124;5.196;2023-08-12T13:25:14;5.32;;;1.20;;
20731;SDS011;10527;52.124;5.196;2023-08-12T13:30:31;4.35;;;1.25;;
20731;SDS011;10527;52.124;5.196;2023-08-12T13:32:58;6.70;;;1.95;;
20731;SDS011;10527;52.124;5.196;2023-08-12T13:35:30;4.20;;;1.20;;
20731;SDS011;10527;52.124;5.196;2023-08-12T13:37:57;3.60;;;1.27;;
20731;SDS011;10527;52.124;5.196;2023-08-12T13:40:25;7.22;;;1.33;;
20731;SDS011;10527;52.124;5.196;2023-08-12T13:42:52;4.03;;;1.00;;
20731;SDS011;10527;52.124;5.196;2023-08-12T13:45:19;4.38;;;0.88;;
20731;SDS011;10527;52.124;5.196;2023-08-12T13:47:46;5.72;;;1.15;;
20731;SDS011;10527;52.124;5.196;2023-08-12T13:50:19;3.97;;;1.63;;
20731;SDS011;10527;52.124;5.196;2023-08-12T13:52:46;5.68;;;1.38;;
20731;SDS011;10527;52.124;5.196;2023-08-12T13:55:19;5.35;;;0.93;;
20731;SDS011;10527;52.124;5.196;2023-08-12T14:00:27;4.95;;;1.00;;
20731;SDS011;10527;52.124;5.196;2023-08-12T14:02:54;5.82;;;1.17;;
20731;SDS011;10527;52.124;5.196;2023-08-12T14:05:28;4.50;;;1.23;;
20731;SDS011;10527;52.124;5.196;2023-08-12T14:07:55;8.20;;;1.52;;
20731;SDS011;10527;52.124;5.196;2023-08-12T14:10:22;4.60;;;1.20;;
20731;SDS011;10527;52.124;5.196;2023-08-12T14:12:49;7.00;;;1.17;;
20731;SDS011;10527;52.124;5.196;2023-08-12T14:15:19;6.75;;;1.35;;
20731;SDS011;10527;52.124;5.196;2023-08-12T14:17:48;7.75;;;1.42;;
20731;SDS011;10527;52.124;5.196;2023-08-12T14:20:15;4.95;;;1.45;;
20731;SDS011;10527;52.124;5.196;2023-08-12T14:22:42;9.20;;;1.90;;
20731;SDS011;10527;52.124;5.196;2023-08-12T14:25:10;5.93;;;1.90;;
20731;SDS011;10527;52.124;5.196;2023-08-12T14:27:43;8.43;;;1.42;;
20731;SDS011;10527;52.124;5.196;2023-08-12T14:30:10;6.45;;;2.00;;
20731;SDS011;10527;52.124;5.196;2023-08-12T14:32:38;6.38;;;1.65;;
20731;SDS011;10527;52.124;5.196;2023-08-12T14:35:05;6.60;;;1.27;;
20731;SDS011;10527;52.124;5.196;2023-08-12T14:37:32;7.22;;;1.30;;
20731;SDS011;10527;52.124;5.196;2023-08-12T14:39:59;4.43;;;1.33;;
20731;SDS011;10527;52.124;5.196;2023-08-12T14:42:27;6.47;;;1.67;;
20731;SDS011;10527;52.124;5.196;2023-08-12T14:44:57;7.18;;;1.23;;
20731;SDS011;10527;52.124;5.196;2023-08-12T14:47:24;5.85;;;1.40;;
20731;SDS011;10527;52.124;5.196;2023-08-12T14:49:51;4.80;;;1.58;;
20731;SDS011;10527;52.124;5.196;2023-08-12T14:52:20;4.82;;;1.38;;
20731;SDS011;10527;52.124;5.196;2023-08-12T14:54:47;5.10;;;1.25;;
20731;SDS011;10527;52.124;5.196;2023-08-12T14:57:14;8.02;;;1.80;;
20731;SDS011;10527;52.124;5.196;2023-08-12T14:59:41;6.05;;;1.48;;
20731;SDS011;10527;52.124;5.196;2023-08-12T15:02:08;5.20;;;1.33;;
20731;SDS011;10527;52.124;5.196;2023-08-12T15:04:35;10.10;;;1.50;;
20731;SDS011;10527;52.124;5.196;2023-08-12T15:07:02;4.03;;;1.10;;
20731;SDS011;10527;52.124;5.196;2023-08-12T15:09:29;3.95;;;1.17;;
20731;SDS011;10527;52.124;5.196;2023-08-12T15:11:56;4.40;;;1.40;;
20731;SDS011;10527;52.124;5.196;2023-08-12T15:14:23;3.72;;;1.05;;
20731;SDS011;10527;52.124;5.196;2023-08-12T15:16:50;5.07;;;1.40;;
20731;SDS011;10527;52.124;5.196;2023-08-12T15:19:17;5.93;;;1.92;;
20731;SDS011;10527;52.124;5.196;2023-08-12T15:21:44;6.45;;;1.80;;
20731;SDS011;10527;52.124;5.196;2023-08-12T15:24:11;7.22;;;1.67;;
20731;SDS011;10527;52.124;5.196;2023-08-12T15:26:38;7.22;;;1.77;;
20731;SDS011;10527;52.124;5.196;2023-08-12T15:29:05;6.75;;;1.75;;
20731;SDS011;10527;52.124;5.196;2023-08-12T15:31:32;4.10;;;1.50;;
20731;SDS011;10527;52.124;5.196;2023-08-12T15:33:59;4.75;;;1.52;;
20731;SDS011;10527;52.124;5.196;2023-08-12T15:36:26;8.35;;;1.73;;